Time;durP1;ratioP1;P1;durP2;ratioP2;P2;SDS_P1;SDS_P2;PMS_P1;PMS_P2;Temp;Humidity;BMP_temperature;BMP_pressure;BME280_temperature;BME280_humidity;BME280_pressure;Samples;Min_cycle;Max_cycle;Signal;HPM_P1;HPM_P2
2022/03/07 00:02:11;;;;;;;7.72;6.35;;;2.50;99.90;;;;;;5017070;28;20062;-71
2022/03/07 00:04:37;;;;;;;7.38;5.70;;;2.40;99.90;;;;;;5000541;28;20092;-70
2022/03/07 00:07:04;;;;;;;9.93;6.20;;;2.20;99.90;;;;;;5016195;28;20041;-71
2022/03/07 00:09:30;;;;;;;9.55;6.13;;;2.20;99.90;;;;;;5016483;28;20034;-70
2022/03/07 00:11:56;;;;;;;12.05;6.43;;;2.20;99.90;;;;;;5016184;28;20334;-69
2022/03/07 00:14:22;;;;;;;9.60;6.05;;;2.40;99.90;;;;;;5016016;28;20121;-70
2022/03/07 00:16:47;;;;;;;9.00;6.22;;;2.40;99.90;;;;;;4999860;28;20040;-71
2022/03/07 00:19:14;;;;;;;8.00;6.40;;;2.40;99.90;;;;;;5016234;28;20045;-71
2022/03/07 00:41:20;;;;;;;10.18;6.10;;;2.20;99.90;;;;;;4997976;28;20112;-71
2022/03/07 00:43:46;;;;;;;11.32;6.72;;;2.10;99.90;;;;;;5019505;28;20088;-70
2022/03/07 00:46:12;;;;;;;8.18;6.13;;;2.10;99.90;;;;;;5052521;28;20386;-70
2022/03/07 00:48:38;;;;;;;10.57;6.20;;;2.00;99.90;;;;;;5019283;28;20034;-71
2022/03/07 00:51:04;;;;;;;8.85;5.90;;;2.00;99.90;;;;;;5003056;28;20349;-70
2022/03/07 00:53:29;;;;;;;9.73;6.53;;;1.90;99.90;;;;;;5035916;28;20127;-71
2022/03/07 00:55:56;;;;;;;9.77;6.78;;;2.00;99.90;;;;;;5003076;28;20072;-69
2022/03/07 00:58:23;;;;;;;8.63;6.90;;;2.00;99.90;;;;;;5019359;28;20038;-70
2022/03/07 01:00:49;;;;;;;10.70;7.05;;;2.00;99.90;;;;;;5020018;28;20038;-70
2022/03/07 01:03:17;;;;;;;9.52;6.78;;;2.00;99.90;;;;;;5019171;28;20033;-70
2022/03/07 01:05:44;;;;;;;8.18;6.43;;;1.90;99.90;;;;;;5019237;28;20365;-71
2022/03/07 01:08:10;;;;;;;11.98;7.63;;;2.00;99.90;;;;;;5019980;28;20057;-70
2022/03/07 01:10:39;;;;;;;9.65;6.38;;;2.00;99.90;;;;;;5019664;28;20033;-69
2022/03/07 01:13:07;;;;;;;11.43;7.05;;;1.90;99.90;;;;;;5019473;28;20378;-69
2022/03/07 01:15:33;;;;;;;10.85;7.20;;;1.80;99.90;;;;;;5019620;28;20289;-69
2022/03/07 01:17:59;;;;;;;13.35;6.93;;;1.80;99.90;;;;;;5018678;28;20045;-70
2022/03/07 01:20:26;;;;;;;12.77;7.13;;;1.70;99.90;;;;;;5019404;28;20041;-70
2022/03/07 01:22:52;;;;;;;11.05;7.07;;;1.80;99.90;;;;;;5019543;28;20041;-70
2022/03/07 01:25:18;;;;;;;9.38;6.97;;;1.70;99.90;;;;;;5019508;28;20056;-70
2022/03/07 01:27:44;;;;;;;12.07;7.25;;;1.70;99.90;;;;;;5018629;28;20337;-70
2022/03/07 01:30:10;;;;;;;12.18;6.82;;;1.80;99.90;;;;;;5019335;28;20330;-70
2022/03/07 01:32:36;;;;;;;10.82;7.30;;;1.80;99.90;;;;;;5018987;28;20022;-70
2022/03/07 01:35:04;;;;;;;10.43;6.85;;;1.70;99.90;;;;;;5019308;28;20088;-70
2022/03/07 01:37:31;;;;;;;13.00;7.97;;;1.70;99.90;;;;;;5018501;28;20129;-70
2022/03/07 01:39:57;;;;;;;10.32;7.38;;;1.80;99.90;;;;;;5019231;28;20065;-70
2022/03/07 01:42:25;;;;;;;9.63;7.53;;;1.80;99.90;;;;;;5018067;28;20046;-70
2022/03/07 01:44:51;;;;;;;10.30;7.68;;;1.70;99.90;;;;;;5018347;28;20033;-70
2022/03/07 01:47:17;;;;;;;12.55;7.80;;;1.70;99.90;;;;;;5034804;28;20121;-70
2022/03/07 01:49:43;;;;;;;9.25;6.95;;;1.60;99.90;;;;;;5018239;28;20034;-70
2022/03/07 01:52:09;;;;;;;11.60;7.65;;;1.40;99.90;;;;;;5018207;28;20022;-70
2022/03/07 01:54:35;;;;;;;10.40;7.30;;;1.30;99.90;;;;;;5017547;28;20030;-70
2022/03/07 01:57:02;;;;;;;10.38;7.40;;;1.40;99.90;;;;;;5018092;28;20045;-70
2022/03/07 01:59:29;;;;;;;13.20;7.30;;;1.40;99.90;;;;;;5051146;28;20113;-70
2022/03/07 02:01:55;;;;;;;10.23;7.65;;;1.30;99.90;;;;;;5034505;28;20318;-71
2022/03/07 02:04:22;;;;;;;11.40;7.90;;;1.40;99.90;;;;;;5017990;28;20337;-71
2022/03/07 02:06:48;;;;;;;10.68;7.68;;;1.30;99.90;;;;;;5017965;28;20030;-71
2022/03/07 02:09:16;;;;;;;10.93;7.53;;;1.30;99.90;;;;;;5001649;28;20397;-70
2022/03/07 02:11:44;;;;;;;11.30;7.55;;;1.30;99.90;;;;;;5001989;28;20088;-71
2022/03/07 02:14:20;;;;;;;10.10;7.53;;;1.10;99.90;;;;;;5034487;28;20117;-70
2022/03/07 02:16:51;;;;;;;14.13;7.88;;;1.10;99.90;;;;;;5001947;28;20398;-70
2022/03/07 02:19:18;;;;;;;9.43;7.30;;;1.00;99.90;;;;;;5017630;28;20025;-70
2022/03/07 02:21:46;;;;;;;11.65;7.88;;;0.90;99.90;;;;;;5018951;28;20063;-70
2022/03/07 02:24:47;;;;;;;;;;;1.00;99.90;;;;;;5018024;28;20417;-70
2022/03/07 02:27:15;;;;;;;11.43;8.05;;;1.00;99.90;;;;;;5018755;28;20025;-70
2022/03/07 02:29:41;;;;;;;11.43;7.40;;;1.00;99.90;;;;;;5018023;28;20095;-70
2022/03/07 02:32:13;;;;;;;11.15;7.93;;;0.90;99.90;;;;;;5018929;28;20424;-69
2022/03/07 02:34:43;;;;;;;11.55;8.15;;;1.00;99.90;;;;;;5017416;28;20030;-70
2022/03/07 02:37:11;;;;;;;11.30;7.68;;;1.00;99.90;;;;;;5017663;28;20049;-71
2022/03/07 02:39:52;;;;;;;11.57;8.23;;;1.00;99.90;;;;;;5003225;28;20034;-71
2022/03/07 02:42:18;;;;;;;11.88;8.27;;;1.00;99.90;;;;;;5000899;28;20062;-71
2022/03/07 02:44:44;;;;;;;11.30;8.15;;;0.90;99.90;;;;;;5018015;28;20105;-70
2022/03/07 02:47:14;;;;;;;10.05;8.13;;;1.00;99.90;;;;;;4984608;28;20029;-70
2022/03/07 02:49:40;;;;;;;11.05;7.60;;;1.00;99.90;;;;;;5017884;28;20357;-70
2022/03/07 02:52:10;;;;;;;12.65;8.40;;;0.90;99.90;;;;;;5017467;28;20057;-70
2022/03/07 02:54:36;;;;;;;13.32;7.93;;;0.80;99.90;;;;;;5017115;28;20045;-70
2022/03/07 02:57:02;;;;;;;13.20;8.45;;;0.70;99.90;;;;;;5016995;28;20091;-70
2022/03/07 02:59:28;;;;;;;11.63;8.00;;;0.80;99.90;;;;;;5017702;28;20116;-70
2022/03/07 03:01:53;;;;;;;11.10;8.02;;;0.90;99.90;;;;;;5017675;28;20038;-70
2022/03/07 03:04:19;;;;;;;16.00;9.18;;;0.80;99.90;;;;;;5017059;28;20492;-70
2022/03/07 03:06:45;;;;;;;14.52;8.57;;;0.80;99.90;;;;;;5000300;28;20045;-71
2022/03/07 03:09:11;;;;;;;12.70;9.07;;;0.80;99.90;;;;;;5016799;28;20030;-71
2022/03/07 03:11:37;;;;;;;13.02;8.70;;;0.80;99.90;;;;;;5017031;28;20084;-71
2022/03/07 03:14:03;;;;;;;12.40;8.70;;;0.80;99.90;;;;;;5016739;28;20156;-71
2022/03/07 03:16:29;;;;;;;13.40;8.13;;;0.70;99.90;;;;;;5000521;28;20033;-71
2022/03/07 03:18:55;;;;;;;13.88;8.27;;;0.70;99.90;;;;;;5016685;28;20042;-71
2022/03/07 03:21:21;;;;;;;12.57;8.02;;;0.70;99.90;;;;;;5016990;28;20357;-71
2022/03/07 03:23:48;;;;;;;14.73;8.50;;;0.70;99.90;;;;;;5017392;28;20045;-71
2022/03/07 03:26:14;;;;;;;10.73;8.63;;;0.60;99.90;;;;;;5000447;28;20050;-72
2022/03/07 03:28:41;;;;;;;13.75;9.05;;;0.60;99.90;;;;;;5016756;28;20030;-71
2022/03/07 03:31:08;;;;;;;11.95;8.45;;;0.70;99.90;;;;;;5016637;28;20064;-71
2022/03/07 03:33:35;;;;;;;17.20;9.20;;;0.70;99.90;;;;;;5017241;28;20331;-71
2022/03/07 03:36:01;;;;;;;14.05;9.38;;;0.70;99.90;;;;;;5000276;28;20029;-71
2022/03/07 03:38:27;;;;;;;15.13;8.57;;;0.60;99.90;;;;;;5017531;28;20305;-71
2022/03/07 03:40:53;;;;;;;15.00;8.98;;;0.60;99.90;;;;;;5016670;28;20045;-71
2022/03/07 03:43:20;;;;;;;12.50;8.73;;;0.60;99.90;;;;;;5017366;28;20317;-71
2022/03/07 03:45:46;;;;;;;12.30;8.77;;;0.60;99.90;;;;;;5017094;28;20314;-71
2022/03/07 03:48:11;;;;;;;11.75;8.70;;;0.60;99.90;;;;;;5016971;28;20038;-71
2022/03/07 03:50:37;;;;;;;13.27;9.07;;;0.60;99.90;;;;;;5017601;28;20034;-71
2022/03/07 03:53:03;;;;;;;13.57;9.10;;;0.60;99.90;;;;;;5016876;28;20042;-71
2022/03/07 03:55:29;;;;;;;14.07;9.10;;;0.50;99.90;;;;;;5016285;28;20056;-71
2022/03/07 03:57:55;;;;;;;13.50;8.93;;;0.50;99.90;;;;;;5016176;28;20038;-71
2022/03/07 04:00:21;;;;;;;16.58;10.32;;;0.50;99.90;;;;;;5016963;28;20037;-71
2022/03/07 04:02:47;;;;;;;19.65;11.48;;;0.50;99.90;;;;;;5016949;28;20390;-71
2022/03/07 04:05:14;;;;;;;19.55;12.70;;;0.40;99.90;;;;;;5016139;28;20038;-71
2022/03/07 04:07:40;;;;;;;20.30;12.77;;;0.40;99.90;;;;;;5017080;28;20128;-72
2022/03/07 04:10:07;;;;;;;21.67;13.68;;;0.50;99.90;;;;;;5017428;28;20030;-71
2022/03/07 04:12:33;;;;;;;19.80;13.10;;;0.50;99.90;;;;;;5016768;28;20289;-71
2022/03/07 04:14:59;;;;;;;19.70;12.68;;;0.40;99.90;;;;;;5016887;28;20125;-72
2022/03/07 04:17:25;;;;;;;20.42;13.20;;;0.40;99.90;;;;;;5018959;28;20022;-71
2022/03/07 04:19:51;;;;;;;22.42;14.15;;;0.40;99.90;;;;;;5021063;28;20036;-73
2022/03/07 04:22:17;;;;;;;26.63;16.08;;;0.40;99.90;;;;;;5021076;28;20026;-73
2022/03/07 04:24:43;;;;;;;27.38;16.00;;;0.30;99.90;;;;;;5021082;28;20125;-73
2022/03/07 04:27:09;;;;;;;27.33;15.43;;;0.30;99.90;;;;;;5022070;28;20033;-73
2022/03/07 04:29:35;;;;;;;28.02;15.75;;;0.30;99.90;;;;;;5004958;28;20065;-73
2022/03/07 04:32:01;;;;;;;27.42;15.65;;;0.40;99.90;;;;;;5022768;28;20022;-73
2022/03/07 04:34:27;;;;;;;25.13;14.60;;;0.40;99.90;;;;;;5025036;28;20451;-73
2022/03/07 04:36:53;;;;;;;23.48;13.85;;;0.40;99.90;;;;;;5024901;28;20355;-73
2022/03/07 04:39:19;;;;;;;30.02;15.50;;;0.30;99.90;;;;;;5022640;28;20041;-72
2022/03/07 04:41:45;;;;;;;25.40;14.48;;;0.40;99.90;;;;;;5022860;28;20053;-73
2022/03/07 04:44:12;;;;;;;23.60;13.48;;;0.50;99.90;;;;;;5006007;28;20046;-73
2022/03/07 04:46:38;;;;;;;19.98;13.13;;;0.50;99.90;;;;;;5022197;28;20125;-73
2022/03/07 04:49:04;;;;;;;23.58;12.82;;;0.50;99.90;;;;;;5022596;28;20044;-73
2022/03/07 04:51:30;;;;;;;21.88;12.25;;;0.40;99.90;;;;;;5022468;28;20430;-73
2022/03/07 04:53:56;;;;;;;17.85;11.93;;;0.40;99.90;;;;;;5022582;28;20403;-74
2022/03/07 04:56:22;;;;;;;18.75;11.40;;;0.50;99.90;;;;;;5023428;28;20096;-74
2022/03/07 04:58:48;;;;;;;21.52;12.02;;;0.50;99.90;;;;;;5021585;28;20124;-73
2022/03/07 05:01:15;;;;;;;17.50;11.02;;;0.50;99.90;;;;;;5022460;28;20041;-73
2022/03/07 05:03:41;;;;;;;17.60;10.85;;;0.40;99.90;;;;;;5022332;28;20049;-73
2022/03/07 05:06:08;;;;;;;17.27;11.27;;;0.40;99.90;;;;;;5023167;28;20386;-73
2022/03/07 05:08:38;;;;;;;17.52;10.95;;;0.30;99.90;;;;;;5023446;28;20104;-73
2022/03/07 05:11:04;;;;;;;16.98;10.43;;;0.40;99.90;;;;;;5024112;28;20038;-73
2022/03/07 05:13:30;;;;;;;17.95;10.60;;;0.30;99.90;;;;;;4991410;28;20095;-73
2022/03/07 05:15:56;;;;;;;16.13;9.98;;;0.20;99.90;;;;;;5024736;28;20030;-74
2022/03/07 05:18:21;;;;;;;19.27;11.30;;;0.20;99.90;;;;;;5021191;28;20030;-74
2022/03/07 05:20:47;;;;;;;16.15;10.15;;;0.20;99.90;;;;;;5019283;28;20033;-74
2022/03/07 05:23:13;;;;;;;15.85;11.13;;;0.20;99.90;;;;;;5021380;28;20465;-74
2022/03/07 05:25:39;;;;;;;14.57;11.27;;;0.20;99.90;;;;;;5022456;28;20057;-74
2022/03/07 05:28:05;;;;;;;15.70;10.68;;;0.20;99.90;;;;;;5022596;28;20030;-74
2022/03/07 05:30:31;;;;;;;16.38;10.77;;;0.10;99.90;;;;;;5021785;28;20072;-74
2022/03/07 05:32:56;;;;;;;16.48;11.00;;;0.10;99.90;;;;;;5023372;28;20061;-74
2022/03/07 05:35:23;;;;;;;15.98;10.13;;;0.10;99.90;;;;;;5022524;28;20034;-74
2022/03/07 05:37:49;;;;;;;16.90;10.00;;;0.10;99.90;;;;;;5019315;28;20040;-74
2022/03/07 05:40:16;;;;;;;16.58;10.27;;;0.00;99.90;;;;;;5021137;28;20042;-73
2022/03/07 05:42:42;;;;;;;16.20;10.82;;;0.00;99.90;;;;;;5021175;28;20045;-74
2022/03/07 05:45:10;;;;;;;17.75;10.50;;;-0.10;99.90;;;;;;5020817;28;20030;-74
2022/03/07 05:47:38;;;;;;;16.40;10.27;;;0.00;99.90;;;;;;5020091;28;20034;-74
2022/03/07 05:50:05;;;;;;;16.02;10.88;;;0.00;99.90;;;;;;5020391;28;20030;-74
2022/03/07 05:52:31;;;;;;;18.17;10.73;;;0.00;99.90;;;;;;5019401;28;20022;-74
2022/03/07 05:54:57;;;;;;;16.80;10.75;;;-0.10;99.90;;;;;;5003070;28;20393;-74
2022/03/07 05:57:23;;;;;;;16.40;11.13;;;-0.10;99.90;;;;;;5018973;28;20030;-74
2022/03/07 05:59:49;;;;;;;16.33;10.93;;;-0.10;99.90;;;;;;5019114;28;20305;-74
2022/03/07 06:02:14;;;;;;;17.25;11.00;;;-0.10;99.90;;;;;;5021107;28;20042;-73
2022/03/07 06:04:41;;;;;;;17.83;10.93;;;-0.10;99.90;;;;;;5021014;28;20037;-74
2022/03/07 06:07:08;;;;;;;16.48;11.48;;;-0.10;99.90;;;;;;5019906;28;20046;-73
2022/03/07 06:09:34;;;;;;;18.25;11.02;;;-0.10;99.90;;;;;;5021244;28;20030;-74
2022/03/07 06:11:59;;;;;;;18.50;11.35;;;-0.10;99.90;;;;;;5021399;28;20041;-74
2022/03/07 06:14:25;;;;;;;19.25;11.00;;;-0.20;99.90;;;;;;5004625;28;20196;-73
2022/03/07 06:16:51;;;;;;;18.90;11.68;;;-0.20;99.90;;;;;;5038528;28;20026;-74
2022/03/07 06:19:17;;;;;;;16.58;11.55;;;-0.20;99.90;;;;;;5022666;28;20117;-73
2022/03/07 06:21:43;;;;;;;16.38;11.52;;;-0.10;99.90;;;;;;5019019;28;20038;-73
2022/03/07 06:24:08;;;;;;;16.92;10.25;;;-0.10;99.90;;;;;;5018679;28;20034;-73
2022/03/07 06:26:35;;;;;;;18.17;11.93;;;0.00;99.90;;;;;;5017343;28;20042;-73
2022/03/07 06:29:02;;;;;;;17.98;11.77;;;-0.10;99.90;;;;;;5018570;28;20037;-72
2022/03/07 06:31:28;;;;;;;20.58;11.35;;;0.00;99.90;;;;;;5017631;28;20041;-73
2022/03/07 06:33:54;;;;;;;23.13;11.13;;;0.00;99.90;;;;;;5017545;28;20028;-73
2022/03/07 06:36:20;;;;;;;16.25;11.07;;;0.00;99.90;;;;;;5018144;28;20113;-73
2022/03/07 06:38:45;;;;;;;16.85;11.00;;;0.20;99.90;;;;;;5017451;28;20038;-73
2022/03/07 06:41:11;;;;;;;17.90;11.02;;;0.10;99.90;;;;;;5018199;28;20045;-72
2022/03/07 06:43:38;;;;;;;19.17;11.38;;;0.10;99.90;;;;;;5018359;28;20050;-73
2022/03/07 06:46:05;;;;;;;20.95;11.20;;;0.10;99.90;;;;;;5000905;28;20042;-72
2022/03/07 06:48:31;;;;;;;18.10;11.90;;;0.30;99.90;;;;;;5018396;28;20038;-73
2022/03/07 06:50:57;;;;;;;17.80;11.27;;;0.30;99.90;;;;;;5018022;28;20053;-73
2022/03/07 06:53:22;;;;;;;16.67;11.45;;;0.30;99.90;;;;;;5018259;28;20060;-73
2022/03/07 06:55:48;;;;;;;18.10;11.27;;;0.30;99.90;;;;;;5001411;28;20034;-74
2022/03/07 06:58:14;;;;;;;18.65;11.43;;;0.30;99.90;;;;;;5018656;28;20052;-72
2022/03/07 07:00:40;;;;;;;18.85;12.07;;;0.30;99.90;;;;;;5035248;28;20029;-73
2022/03/07 07:03:05;;;;;;;16.92;11.35;;;0.40;99.90;;;;;;5018775;28;20034;-74
2022/03/07 07:05:32;;;;;;;16.98;11.27;;;0.50;99.90;;;;;;5017080;28;20046;-72
2022/03/07 07:07:58;;;;;;;19.92;12.27;;;0.60;99.90;;;;;;5017728;28;20373;-72
2022/03/07 07:10:25;;;;;;;17.17;11.95;;;0.70;99.90;;;;;;5001045;28;20033;-73
2022/03/07 07:12:52;;;;;;;16.60;11.27;;;0.70;99.90;;;;;;5000733;28;20061;-73
2022/03/07 07:15:19;;;;;;;19.17;11.90;;;0.80;99.90;;;;;;5016871;28;20038;-72
2022/03/07 07:17:45;;;;;;;17.00;11.00;;;0.80;99.90;;;;;;5018421;28;20088;-71
2022/03/07 07:20:12;;;;;;;16.65;11.23;;;1.00;99.90;;;;;;5017798;28;20040;-73
2022/03/07 07:22:39;;;;;;;17.13;11.15;;;1.10;99.90;;;;;;5016986;28;20384;-73
2022/03/07 07:25:06;;;;;;;14.52;10.40;;;1.00;99.90;;;;;;5018003;28;20037;-73
2022/03/07 07:27:32;;;;;;;15.70;10.07;;;0.90;99.90;;;;;;5017139;28;20302;-71
2022/03/07 07:29:58;;;;;;;15.90;10.70;;;2.30;99.90;;;;;;5016440;28;20129;-71
2022/03/07 07:32:25;;;;;;;15.35;10.05;;;2.00;99.90;;;;;;5000522;28;20500;-71
2022/03/07 07:34:51;;;;;;;12.60;10.15;;;1.80;99.90;;;;;;5017367;28;20033;-70
2022/03/07 07:37:17;;;;;;;15.95;10.50;;;1.70;99.90;;;;;;5017187;28;20392;-70
2022/03/07 07:39:42;;;;;;;14.63;9.88;;;1.60;99.90;;;;;;5016810;28;20030;-70
2022/03/07 07:42:08;;;;;;;13.13;9.68;;;1.60;99.90;;;;;;5016170;28;20057;-64
2022/03/07 07:44:38;;;;;;;13.15;9.65;;;1.60;99.90;;;;;;5000490;28;20057;-69
2022/03/07 07:47:04;;;;;;;14.15;9.43;;;4.10;99.90;;;;;;5016315;28;20287;-69
2022/03/07 07:49:31;;;;;;;12.63;9.27;;;4.90;99.90;;;;;;5016396;28;20034;-71
2022/03/07 07:51:57;;;;;;;14.00;9.55;;;4.70;99.90;;;;;;5015898;28;20037;-70
2022/03/07 07:54:23;;;;;;;12.15;9.00;;;4.10;99.90;;;;;;4999821;28;20026;-70
2022/03/07 07:56:49;;;;;;;12.20;8.38;;;3.70;99.90;;;;;;5016028;28;20026;-70
2022/03/07 07:59:15;;;;;;;12.30;9.00;;;3.30;99.90;;;;;;5016066;28;20038;-70
2022/03/07 08:01:41;;;;;;;14.13;9.35;;;3.10;99.90;;;;;;5016169;28;20034;-71
2022/03/07 08:04:07;;;;;;;12.52;9.30;;;2.70;99.90;;;;;;5016167;28;20038;-69
2022/03/07 08:06:33;;;;;;;12.75;8.73;;;2.60;99.90;;;;;;5017290;28;20117;-69
2022/03/07 08:08:58;;;;;;;13.07;8.88;;;2.50;99.90;;;;;;5049234;28;20034;-69
2022/03/07 08:11:24;;;;;;;11.70;8.98;;;2.40;99.90;;;;;;5017367;28;20034;-69
2022/03/07 08:13:50;;;;;;;15.70;9.63;;;2.40;99.90;;;;;;4999710;28;20034;-69
2022/03/07 08:16:18;;;;;;;15.75;9.50;;;2.30;99.90;;;;;;5016645;28;20400;-69
2022/03/07 08:18:44;;;;;;;13.55;9.98;;;2.40;99.90;;;;;;5016183;28;20052;-69
2022/03/07 08:21:09;;;;;;;10.93;8.45;;;2.30;99.90;;;;;;5017097;28;20030;-69
2022/03/07 08:23:35;;;;;;;12.68;9.25;;;2.40;99.90;;;;;;5016863;28;20413;-70
2022/03/07 08:26:01;;;;;;;12.50;9.02;;;2.50;99.90;;;;;;5016249;28;20108;-69
2022/03/07 08:28:27;;;;;;;14.35;10.02;;;2.60;99.90;;;;;;5016132;28;20034;-70
2022/03/07 08:30:53;;;;;;;11.40;8.23;;;2.60;99.90;;;;;;5016274;28;20050;-69
2022/03/07 08:33:19;;;;;;;11.18;8.60;;;2.80;99.90;;;;;;5016183;28;20145;-69
2022/03/07 08:35:44;;;;;;;11.32;8.00;;;2.70;99.90;;;;;;5016048;28;20038;-69
2022/03/07 08:38:10;;;;;;;10.57;7.97;;;2.60;99.90;;;;;;5016180;28;20039;-69
2022/03/07 08:40:36;;;;;;;10.82;7.93;;;2.50;99.90;;;;;;4999614;28;20057;-69
2022/03/07 08:43:02;;;;;;;13.35;8.35;;;2.70;99.90;;;;;;5016359;28;20091;-69
2022/03/07 08:45:28;;;;;;;10.73;7.60;;;2.80;99.90;;;;;;5016822;28;20279;-68
2022/03/07 08:47:55;;;;;;;11.48;8.25;;;2.90;99.90;;;;;;5015798;28;20072;-68
2022/03/07 08:50:22;;;;;;;11.10;6.97;;;3.00;99.90;;;;;;5015831;28;20041;-69
2022/03/07 08:52:48;;;;;;;9.85;6.45;;;2.90;99.90;;;;;;5015628;28;20022;-69
2022/03/07 08:55:14;;;;;;;7.97;6.30;;;2.80;99.90;;;;;;5032460;28;20018;-69
2022/03/07 08:57:40;;;;;;;8.05;6.00;;;2.80;99.90;;;;;;5016495;28;20037;-69
2022/03/07 09:00:12;;;;;;;10.20;6.18;;;2.90;99.90;;;;;;5016537;28;20030;-69
2022/03/07 09:02:38;;;;;;;7.75;5.60;;;3.00;99.90;;;;;;5016515;28;20045;-68
2022/03/07 09:05:05;;;;;;;8.10;6.15;;;3.00;99.90;;;;;;5035988;28;20267;-70
2022/03/07 09:07:31;;;;;;;11.57;5.90;;;3.10;99.90;;;;;;5020254;28;20283;-68
2022/03/07 09:09:57;;;;;;;7.68;5.93;;;3.10;99.90;;;;;;5019127;28;20069;-69
2022/03/07 09:12:27;;;;;;;5.97;4.82;;;3.20;99.90;;;;;;5019961;28;20028;-68
2022/03/07 09:14:56;;;;;;;6.28;5.55;;;3.40;99.90;;;;;;5019859;28;20092;-69
2022/03/07 09:17:21;;;;;;;6.63;5.20;;;3.40;99.90;;;;;;5019858;28;20026;-69
2022/03/07 09:19:47;;;;;;;6.95;5.45;;;3.50;99.90;;;;;;5018806;28;20030;-69
2022/03/07 09:22:13;;;;;;;6.85;5.13;;;3.60;99.90;;;;;;5019187;28;20056;-69
2022/03/07 09:24:39;;;;;;;5.70;5.10;;;3.60;99.90;;;;;;5002415;28;20041;-69
2022/03/07 09:27:05;;;;;;;7.00;4.78;;;3.80;99.90;;;;;;5019571;28;20038;-68
2022/03/07 09:29:30;;;;;;;5.85;4.25;;;3.90;99.90;;;;;;5018905;28;20117;-68
2022/03/07 09:31:56;;;;;;;5.55;4.15;;;3.90;99.90;;;;;;5018854;28;20181;-69
2022/03/07 09:34:22;;;;;;;5.28;4.68;;;3.80;99.90;;;;;;5019518;28;20029;-68
2022/03/07 09:36:48;;;;;;;6.57;5.05;;;3.90;99.90;;;;;;4986268;28;20026;-68
2022/03/07 09:39:14;;;;;;;5.53;4.28;;;4.00;99.90;;;;;;5018713;28;20104;-68
2022/03/07 09:41:42;;;;;;;8.07;4.60;;;3.80;99.90;;;;;;5018592;28;20048;-68
2022/03/07 09:44:09;;;;;;;5.05;4.35;;;3.80;99.90;;;;;;5019193;28;20244;-68
2022/03/07 09:46:35;;;;;;;8.43;4.13;;;3.90;99.90;;;;;;5018619;28;20042;-70
2022/03/07 09:49:01;;;;;;;6.15;4.38;;;4.10;99.90;;;;;;5019180;28;20038;-69
2022/03/07 09:51:27;;;;;;;6.18;4.40;;;4.20;99.90;;;;;;5018527;28;20022;-67
2022/03/07 09:53:53;;;;;;;5.93;4.35;;;4.40;99.90;;;;;;5018789;28;20105;-68
2022/03/07 09:56:19;;;;;;;6.28;4.57;;;4.40;99.90;;;;;;5018641;28;20061;-68
2022/03/07 09:58:45;;;;;;;6.28;4.45;;;4.50;99.90;;;;;;5002150;28;20057;-68
2022/03/07 10:01:17;;;;;;;5.10;4.10;;;4.40;99.90;;;;;;5002127;28;20033;-66
2022/03/07 10:03:43;;;;;;;5.80;4.18;;;4.50;99.90;;;;;;5018485;28;20040;-69
2022/03/07 10:06:19;;;;;;;4.80;4.30;;;4.70;99.90;;;;;;5018230;28;20034;-70
2022/03/07 10:08:56;;;;;;;6.25;4.07;;;4.80;99.90;;;;;;5018703;28;20332;-69
2022/03/07 10:11:22;;;;;;;4.35;3.80;;;4.80;99.90;;;;;;5018205;28;20026;-68
2022/03/07 10:13:54;;;;;;;7.20;3.92;;;4.90;99.90;;;;;;5018351;28;20083;-69
2022/03/07 10:16:20;;;;;;;5.65;4.25;;;4.90;99.90;;;;;;5017805;28;20045;-69
2022/03/07 10:18:51;;;;;;;5.13;4.47;;;5.00;99.90;;;;;;5018484;28;20321;-69
2022/03/07 10:21:22;;;;;;;5.85;4.45;;;5.00;99.90;;;;;;5018507;28;20025;-69
2022/03/07 10:23:55;;;;;;;5.55;4.43;;;5.20;99.90;;;;;;5018480;28;20044;-69
2022/03/07 10:26:22;;;;;;;5.72;4.00;;;5.20;99.90;;;;;;5018377;28;20394;-70
2022/03/07 10:28:56;;;;;;;5.78;4.88;;;5.10;99.90;;;;;;5018253;28;20080;-68
2022/03/07 10:31:23;;;;;;;5.32;3.60;;;5.40;99.90;;;;;;5018357;28;20087;-70
2022/03/07 10:34:01;;;;;;;5.75;3.55;;;5.70;99.90;;;;;;5018459;28;20121;-69
2022/03/07 10:36:32;;;;;;;6.00;3.75;;;5.90;99.90;;;;;;5018311;28;20079;-69
2022/03/07 10:38:58;;;;;;;4.32;3.83;;;6.50;99.90;;;;;;5017489;28;20021;-69
2022/03/07 10:41:36;;;;;;;5.15;4.28;;;7.00;99.90;;;;;;5017461;28;20030;-69
2022/03/07 10:44:05;;;;;;;8.07;3.90;;;7.70;99.90;;;;;;5017281;28;20072;-59
2022/03/07 10:46:31;;;;;;;5.07;3.72;;;8.30;99.90;;;;;;5018043;28;20037;-69
2022/03/07 10:48:57;;;;;;;6.55;4.18;;;8.00;99.90;;;;;;5018438;28;20085;-69
2022/03/07 10:51:25;;;;;;;4.82;3.70;;;7.70;99.90;;;;;;5018214;28;20026;-70
2022/03/07 10:53:52;;;;;;;4.57;4.10;;;7.80;99.90;;;;;;5017980;28;20113;-69
2022/03/07 10:56:21;;;;;;;4.68;3.92;;;8.30;99.90;;;;;;5017505;28;20034;-68
2022/03/07 10:58:54;;;;;;;6.72;3.80;;;8.70;99.90;;;;;;5000770;28;20032;-70
2022/03/07 11:01:32;;;;;;;11.32;3.67;;;8.50;99.90;;;;;;5017371;28;20038;-69
2022/03/07 11:03:58;;;;;;;4.35;3.92;;;8.70;99.90;;;;;;5018341;28;20045;-70
2022/03/07 11:06:28;;;;;;;4.10;3.35;;;8.30;99.90;;;;;;5017165;28;20048;-69
2022/03/07 11:08:55;;;;;;;5.45;4.00;;;8.50;99.90;;;;;;5017604;28;20032;-69
2022/03/07 11:11:22;;;;;;;4.68;3.75;;;8.90;99.90;;;;;;5017642;28;20029;-70
2022/03/07 11:13:53;;;;;;;4.38;3.72;;;8.70;99.90;;;;;;5017821;28;20105;-70
2022/03/07 11:16:21;;;;;;;4.03;3.60;;;8.80;99.90;;;;;;5017643;28;20034;-69
2022/03/07 11:18:54;;;;;;;4.28;3.70;;;9.70;99.90;;;;;;5049894;28;20307;-69
2022/03/07 11:21:20;;;;;;;;;;;9.70;99.90;;;;;;5017289;28;20080;-70
2022/03/07 11:23:47;;;;;;;6.85;3.88;;;10.20;99.90;;;;;;5016702;28;19905;-70
2022/03/07 11:26:13;;;;;;;5.70;3.38;;;10.70;99.90;;;;;;5016146;28;20034;-70
2022/03/07 11:28:40;;;;;;;4.07;3.42;;;11.00;99.90;;;;;;5000455;28;20041;-68
2022/03/07 11:31:06;;;;;;;4.07;3.67;;;11.70;99.90;;;;;;5017486;28;20404;-68
2022/03/07 11:33:37;;;;;;;4.13;3.70;;;12.00;99.60;;;;;;5033196;28;20040;-68
2022/03/07 11:36:05;;;;;;;5.32;3.55;;;11.70;99.70;;;;;;5016781;28;20044;-68
2022/03/07 11:38:31;;;;;;;5.13;3.80;;;11.90;98.40;;;;;;5017242;28;20037;-69
2022/03/07 11:41:11;;;;;;;3.92;3.47;;;12.20;97.90;;;;;;5016994;28;20298;-68
2022/03/07 11:43:56;;;;;;;4.40;3.50;;;11.50;97.80;;;;;;5016405;28;20050;-69
2022/03/07 11:46:23;;;;;;;3.65;3.30;;;12.10;97.60;;;;;;5017290;28;20101;-70
2022/03/07 11:48:49;;;;;;;4.45;3.13;;;12.20;96.60;;;;;;5017377;28;20040;-70
2022/03/07 11:51:17;;;;;;;4.40;3.50;;;11.90;96.50;;;;;;5000149;28;20034;-69
2022/03/07 11:53:46;;;;;;;3.40;3.10;;;11.60;95.70;;;;;;5017702;28;20297;-70
2022/03/07 11:56:25;;;;;;;3.92;3.30;;;11.60;95.60;;;;;;5016771;28;20096;-67
2022/03/07 11:58:54;;;;;;;6.60;3.25;;;11.70;95.50;;;;;;5016522;28;20116;-69
2022/03/07 12:01:22;;;;;;;4.15;3.63;;;11.70;95.40;;;;;;5016433;28;20053;-69
2022/03/07 12:03:48;;;;;;;3.08;2.78;;;11.80;94.90;;;;;;5017105;28;20036;-70
2022/03/07 12:06:16;;;;;;;3.50;3.20;;;12.90;94.80;;;;;;5017728;28;20109;-68
2022/03/07 12:08:43;;;;;;;5.05;3.47;;;11.50;93.90;;;;;;5016266;28;20037;-69
2022/03/07 12:11:10;;;;;;;3.80;3.17;;;11.90;93.90;;;;;;5017569;28;20370;-68
2022/03/07 12:13:47;;;;;;;3.80;3.22;;;12.50;93.10;;;;;;5000121;28;20057;-68
2022/03/07 12:16:23;;;;;;;3.70;3.40;;;13.00;93.00;;;;;;5017015;28;20033;-68
2022/03/07 12:18:49;;;;;;;5.25;3.38;;;13.10;92.30;;;;;;4999863;28;20025;-68
2022/03/07 12:21:25;;;;;;;4.07;3.10;;;14.30;90.60;;;;;;5016145;28;20041;-68
2022/03/07 12:23:51;;;;;;;4.40;3.35;;;15.10;89.80;;;;;;5016746;28;20044;-68
2022/03/07 12:26:17;;;;;;;3.80;2.92;;;15.90;84.80;;;;;;5032559;28;20041;-68
2022/03/07 12:28:47;;;;;;;4.55;3.33;;;15.70;81.70;;;;;;5016030;28;20026;-68
2022/03/07 12:31:13;;;;;;;4.13;3.25;;;16.00;80.90;;;;;;5016002;28;20104;-68
2022/03/07 12:33:42;;;;;;;3.63;3.33;;;15.10;80.10;;;;;;5015945;28;20014;-68
2022/03/07 12:36:12;;;;;;;3.40;3.10;;;14.70;82.30;;;;;;5000272;28;20290;-68
2022/03/07 12:38:45;;;;;;;3.55;3.08;;;13.90;80.40;;;;;;5019719;28;20030;-74
2022/03/07 12:41:12;;;;;;;4.32;3.40;;;13.90;80.50;;;;;;5022192;28;20093;-69
2022/03/07 12:43:39;;;;;;;3.22;2.90;;;13.50;81.10;;;;;;5021039;28;20050;-68
2022/03/07 12:46:05;;;;;;;4.78;3.33;;;13.10;82.40;;;;;;5004132;28;20044;-67
2022/03/07 12:48:40;;;;;;;3.50;3.20;;;12.90;82.20;;;;;;5003567;28;20049;-68
2022/03/07 12:51:08;;;;;;;4.45;3.10;;;13.10;84.20;;;;;;5020994;28;20030;-70
2022/03/07 12:53:36;;;;;;;3.40;3.10;;;12.90;82.70;;;;;;5020328;28;20298;-68
2022/03/07 12:56:04;;;;;;;3.42;3.10;;;13.10;82.60;;;;;;5019521;28;20356;-68
2022/03/07 12:58:30;;;;;;;3.08;2.88;;;14.20;80.90;;;;;;5020389;28;20072;-68
2022/03/07 13:00:57;;;;;;;3.80;3.10;;;15.20;78.30;;;;;;5020225;28;20048;-69
2022/03/07 13:03:24;;;;;;;5.07;3.25;;;15.80;74.70;;;;;;5020142;28;20038;-71
2022/03/07 13:06:02;;;;;;;7.13;3.13;;;14.30;76.90;;;;;;5019559;28;20074;-70